Tibbee, Mississippi
Current Conditions -  °F | °C
As of 2:58 PM on Thursday 20 Nov 2014 (Local Time) from KCBM Reporting Station
Broken Clouds Broken Clouds  
Wind Chill: 60°   Ceiling: 7500
Heat Index: 60°   Visibility: 10mi
Dew Point: 40°   Wind: 1mph
Humidity: 48%   Direction: NA
Pressure: 30.2"   Gusts: NA
Location:  33.6681°N, 88.7618°W
Report Text: KCBM 202058Z AUTO VRB01KT 10SM BKN075 15/04 A3020 RMK AO2 SLP230 T01540043 56014 $
Loading
Personal Weather Stations






























Interactive Weather Map New forecast layout! Learn more

10-Day Weather Forecast

Advertisements
Track Severe Weather on mobile